Terminal Aerodrome Forecast
Issued by NWS

Home | Current Version | Previous Version | Text Only | Print | Product List | Glossary On
Versions: 1 2 3 4 5 6 7 8 9 10 11 12 13 14 15
000
FTUS41 KBOX 281139
TAFBED
TAF
KBED 281139Z 2812/2912 26005KT P6SM SCT050
     FM282000 27006KT P6SM SCT050
     FM282100 23006KT P6SM SCT050
     FM290600 VRB03KT 3SM BR SCT200
     FM290800 36004KT P6SM SCT200
     FM290900 03004KT 5SM BR SCT200
     FM291100 03004KT P6SM BKN010=

USA.gov is the U.S. government's official web portal to all federal, state and local government web resources and services.